Grindrod, Canada
Current Conditions -  °F | °C
As of 10:41 AM on Sunday 21 Dec 2014 (Local Time) from CYRV Reporting Station
Light Rain Light Rain  
Wind Chill: 34°   Ceiling: 300
Heat Index: 34°   Visibility: 2.2mi
Dew Point: 32°   Wind: 3mph
Humidity: 93%   Direction: 340°NNW
Pressure: 29.7"   Gusts: NA
Location:  50.63°N, 119.12°W
Report Text: CYRV 211841Z AUTO 34003KT 290V360 2 1/4SM -RA BR OVC003 01/00 A2970 RMK SLP073
Loading
Personal Weather Stations






























Interactive Weather Map New forecast layout! Learn more

10-Day Weather Forecast

Advertisements
Track Severe Weather on mobile